Hamilton Airport, Ontario

10:57 PM EDT on October 25, 2014 (GMT -0400)
Hamilton | Change Station
CLOSE
Current Station
Airport
Location: Hamilton Airport,
Elevation: 781 ft
Nearby Weather Stations

Elev 781 ft 43.17 °N, 79.93 °W | Updated 57 minutes ago

Partly Cloudy
Partly Cloudy
50 °F
Feels Like 50 °F
N
10
Wind Variable Wind from WNW
Gusts 20 mph

Tomorrow is forecast to be nearly the same temperature as today.

Today
High -- | Low -- °F
--% Chance of Precip.
Yesterday
High -- | Low -- °F
Precip. -- in
7:45 AM 6:21 PM
Waxing Crescent, 5% visible
Pressure 29.69 in
Visibility 15.0 miles
Clouds Few 6000 ft
Few 8200 ft
Dew Point 39 °F
Humidity 66%
Rainfall 0.00 in
Snow Depth Not available.
UV 0 out of 12
Pollen Not available.
Air Quality Not available.
Flu Activity Not available.
METAR CYHM 260200Z 30009G17KT 15SM FEW060 FEW082 10/04 A2968 RMK SC1AC1 SLP053

More Conditions Fewer Conditions

Pressure 29.69 in
Visibility 15.0 miles
Clouds Few 6000 ft
Few 8200 ft
Dew Point 39 °F
Humidity 66%
Rainfall 0.00 in
Snow Depth Not available.
UV 0 out of 12
Pollen Not available.
Air Quality Not available.
Flu Activity Not available.
METAR CYHM 260200Z 30009G17KT 15SM FEW060 FEW082 10/04 A2968 RMK SC1AC1 SLP053

More Conditions Fewer Conditions

10-Day Weather Forecast

Almanac

Astronomy

Oct. 25, 2014 Rise Set
Actual Time 7:45 AM EDT 6:21 PM EDT
Civil Twilight 7:16 AM EDT 6:50 PM EDT
Nautical Twilight 6:43 AM EDT 7:23 PM EDT
Astronomical Twilight 6:10 AM EDT 7:56 PM EDT
Moon 9:24 AM EDT (10/25) 7:40 PM EDT (10/25)
Length of Visible Light 11h 33m
Length of Day
10h 35m
Tomorrow will be 2m 43s shorter.
Waxing Crescent, 5% of the Moon is Illuminated
Today
Waxing Crescent
Oct 30
First Quarter
Nov 6
Full
Nov 14
Last Quarter
Nov 22
New

Today's Extremes

Country Highs Country Lows

Community

WunderPhotos

Upload Photos

1,765,086 photos uploaded!

Nearby

Snow Depth

Not available.

Earthquake Activity

City Distance Mag. Time & Date
No recent earthquake activity has been reported nearby.
Minimum magnitude displayed is 2.5.

Coastal Water Temperatures

Place Temperature
No Stations Reporting

Nearby Weather Stations